RKPCRKTU

Guest
Details From RKPC - JEJU INTL
To RKTU - CHEONGJU INTL
Flight Number -
Tags decoded
Created
Modified
Stats Distance 199 nm / 368 km
Max Altitude 0 ft / 0 m
Waypoints 2
Social Downloads 0
Likes 0
Share VATSIM

Download

Looking for another format? Having issues loading an existing format? Contact us
Advertisement - Login to hide

Notes

Requested: RKPC GUKSU Y722 OLMEN RKTU Unmatched points: GUKSU Y722 OLMEN

Route

RKPC RKTU

ID Type Via Altitude Latitude Longitude Leg Dist Tot Dist Heading (true) Name
O RKPC APT - 0 ft / 0 m 33.50898˚ 126.48940˚ - 0 nm - JEJU INTL
O RKTU APT - 0 ft / 0 m 36.71656˚ 127.49917˚ 198 nm 198 nm 14° / 15° CHEONGJU INTL

Altitude Profile

Advertisement - Login to hide

Weather


0- 5 10 15 20 25 30 35+ Temperature / ° C

Clouds and Precipitation
Forecast for 2017-12-11 18:00 UTC. Updated 2 hours ago

Ground ~20,000 ft ~40,000 ft Winds

RKPC

Details ICAO RKPC (CJU)
Name JEJU INTL
Region South Korea
Timezone Asia/Seoul (UTC+9.0)
Stats Elevation 118 ft / 36 m (AMSL)
Location 33.508980° 126.489397°
Runways 2
Magnetic Variation 7.204° W

METAR

RKPC 111500Z 32013KT 290V360 9999 -SHRASN FEW015 BKN030 04/M03 Q1026 WS ALL RWY NOSIG

Decode

TAF

TAF RKPC 111100Z 1112/1218 32020G35KT 6000 -SHSNRA FEW010 BKN035 TN02/1121Z TX05/1206Z BECMG 1117/1118 33015G25KT -SHSN BECMG 1208/1209 34010KT NSW

Decode

Departure Runways

ID Width Length Bearing (true) Bearing (mag) Surface Threshold Offset Overrun Length
06 148 ft / 45 m 9,830 ft / 2,996 m 58.37° 65.57° Asphalt 0 ft / 0 m 197 ft / 60 m
13 148 ft / 45 m 6,267 ft / 1,910 m 125.72° 132.92° Asphalt 0 ft / 0 m 0 ft / 0 m
24 148 ft / 45 m 9,830 ft / 2,996 m 238.38° 245.58° Asphalt 0 ft / 0 m 197 ft / 60 m
31 148 ft / 45 m 6,267 ft / 1,910 m 305.73° 312.93° Asphalt 1,350 ft / 411 m 295 ft / 90 m

RKTU

Details ICAO RKTU (CJJ)
Name CHEONGJU INTL
Region South Korea
Timezone Asia/Seoul (UTC+9.0)
Stats Elevation 191 ft / 58 m (AMSL)
Location 36.716564° 127.499165°
Runways 2
Magnetic Variation 8.221° W

METAR

RKTU 111500Z 26007KT CAVOK M08/M16 Q1027 NOSIG

Decode

TAF

TAF RKTU 111100Z 1112/1218 30006KT 9999 SCT030 TXM02/1206Z TNM13/1212Z BECMG 1202/1203

Decode

Destination Runways

ID Width Length Bearing (true) Bearing (mag) Surface Threshold Offset Overrun Length
06L 200 ft / 61 m 8,955 ft / 2,729 m 51.72° 59.94° Concrete 0 ft / 0 m 1,000 ft / 305 m
06R 150 ft / 46 m 8,900 ft / 2,713 m 51.91° 60.13° Concrete 0 ft / 0 m 1,000 ft / 305 m
24L 150 ft / 46 m 8,900 ft / 2,713 m 231.93° 240.15° Concrete 0 ft / 0 m 1,000 ft / 305 m
24R 200 ft / 61 m 8,955 ft / 2,729 m 231.73° 239.95° Concrete 0 ft / 0 m 1,000 ft / 305 m

Approach Navaids

Runway Type Ident Frequency Range Bearing (true) Bearing (mag) Slope Elevation
24R Localiser ICHG 111.70 MHz 18 nm / 33 km 231.65° 239.87° - 190 ft / 58 m (AMSL)
24R Glidescope ICHG 111.70 MHz 10 nm / 19 km 233.00° 241.22° 3.00° 190 ft / 58 m (AMSL)
24R DME ICHG 111.70 MHz 18 nm / 33 km - - - 11 ft / 3 m (AMSL)

Popular Alternatives